createdAt,value
2018-12-13T00:00:36.505Z,14.40
2018-12-13T00:03:04.821Z,15.40
2018-12-13T00:05:33.093Z,14.97
2018-12-13T00:08:01.307Z,15.27
2018-12-13T00:10:28.665Z,15.33
2018-12-13T00:12:57.147Z,15.07
2018-12-13T00:15:27.348Z,15.67
2018-12-13T00:17:54.668Z,14.73
2018-12-13T00:20:21.955Z,15.30
2018-12-13T00:22:50.139Z,15.50
2018-12-13T00:25:17.506Z,15.60
2018-12-13T00:27:48.775Z,14.23
2018-12-13T00:30:17.061Z,14.23
2018-12-13T00:32:46.344Z,15.03
2018-12-13T00:35:14.689Z,14.77
2018-12-13T00:37:47.926Z,14.00
2018-12-13T00:40:16.200Z,14.50
2018-12-13T00:42:44.442Z,14.70
2018-12-13T00:45:12.768Z,15.20
2018-12-13T00:47:42.156Z,14.63
2018-12-13T00:50:09.443Z,14.30
2018-12-13T00:52:40.172Z,14.47
2018-12-13T00:55:07.460Z,14.47
2018-12-13T00:57:34.794Z,13.33
2018-12-13T01:00:03.645Z,14.27
2018-12-13T01:02:31.955Z,14.23
2018-12-13T01:05:00.200Z,13.60
2018-12-13T01:07:27.528Z,13.93
2018-12-13T01:10:03.384Z,13.03
2018-12-13T01:12:31.681Z,13.30
2018-12-13T01:14:58.966Z,12.90
2018-12-13T01:17:27.257Z,13.93
2018-12-13T01:19:55.456Z,12.80
2018-12-13T01:22:23.723Z,13.33
2018-12-13T01:24:52.177Z,13.30
2018-12-13T01:27:21.432Z,13.67
2018-12-13T01:29:49.720Z,14.27
2018-12-13T01:32:18.018Z,13.60
2018-12-13T01:34:47.206Z,13.93
2018-12-13T01:37:15.460Z,13.40
2018-12-13T01:39:43.708Z,14.43
2018-12-13T01:42:12.002Z,12.57
2018-12-13T01:44:40.290Z,14.90
2018-12-13T01:47:07.600Z,13.63
2018-12-13T01:49:35.771Z,14.17
2018-12-13T01:52:03.121Z,14.27
2018-12-13T01:54:31.409Z,14.57
2018-12-13T01:56:59.597Z,15.03
2018-12-13T01:59:26.924Z,16.07
2018-12-13T02:01:54.279Z,15.10
2018-12-13T02:04:21.620Z,15.30
2018-12-13T02:06:48.924Z,15.27
2018-12-13T02:09:17.190Z,15.10
2018-12-13T02:11:45.368Z,16.00
2018-12-13T02:14:13.713Z,17.30
2018-12-13T02:16:41.941Z,15.33
2018-12-13T02:19:10.265Z,14.80
2018-12-13T02:21:37.539Z,14.77
2018-12-13T02:24:05.914Z,14.80
2018-12-13T02:26:33.225Z,15.20
2018-12-13T02:29:01.526Z,15.53
2018-12-13T02:31:28.849Z,16.17
2018-12-13T02:33:58.177Z,14.80
2018-12-13T02:36:26.420Z,17.27
2018-12-13T02:38:55.651Z,15.90
2018-12-13T02:41:23.932Z,15.40
2018-12-13T02:43:51.247Z,17.80
2018-12-13T02:46:20.524Z,16.77
2018-12-13T02:48:47.811Z,17.80
2018-12-13T02:51:15.144Z,18.10
2018-12-13T02:53:42.590Z,18.40
2018-12-13T02:56:10.882Z,20.53
2018-12-13T02:58:38.209Z,18.50
2018-12-13T03:01:05.574Z,18.43
2018-12-13T03:03:33.765Z,19.47
2018-12-13T03:06:01.158Z,18.87
2018-12-13T03:08:28.457Z,19.77
2018-12-13T03:10:56.772Z,19.93
2018-12-13T03:13:24.117Z,21.27
2018-12-13T03:15:52.381Z,18.63
2018-12-13T03:18:19.738Z,20.20
2018-12-13T03:20:47.054Z,20.00
2018-12-13T03:23:14.340Z,18.13
2018-12-13T03:25:43.619Z,18.13
2018-12-13T03:28:10.972Z,17.43
2018-12-13T03:30:38.348Z,17.30
2018-12-13T03:33:05.711Z,19.27
2018-12-13T03:35:33.082Z,18.93
2018-12-13T03:38:00.363Z,19.40
2018-12-13T03:40:27.693Z,19.73
2018-12-13T03:42:56.018Z,19.67
2018-12-13T03:45:23.370Z,19.40
2018-12-13T03:47:51.581Z,19.37
2018-12-13T03:50:19.922Z,19.20
2018-12-13T03:52:52.158Z,19.00
2018-12-13T03:55:19.485Z,19.00
2018-12-13T03:57:46.829Z,19.40
2018-12-13T04:00:14.177Z,19.00
2018-12-13T04:02:42.473Z,19.83
2018-12-13T04:05:09.766Z,19.67
2018-12-13T04:07:37.971Z,19.10
2018-12-13T04:10:06.310Z,18.90
2018-12-13T04:12:35.507Z,19.20
2018-12-13T04:15:04.347Z,17.60
2018-12-13T04:17:33.565Z,17.70
2018-12-13T04:20:01.889Z,18.67
2018-12-13T04:22:29.201Z,17.80
2018-12-13T04:24:57.805Z,18.10
2018-12-13T04:27:26.090Z,19.10
2018-12-13T04:29:54.289Z,18.90
2018-12-13T04:32:21.577Z,17.30
2018-12-13T04:34:49.885Z,18.40
2018-12-13T04:37:18.137Z,18.33
2018-12-13T04:39:46.377Z,18.00
2018-12-13T04:42:13.705Z,16.60
2018-12-13T04:44:41.939Z,18.30
2018-12-13T04:47:11.130Z,18.37
2018-12-13T04:49:39.416Z,16.77
2018-12-13T04:52:06.774Z,17.77
2018-12-13T04:54:36.030Z,16.93
2018-12-13T04:57:03.402Z,17.27
2018-12-13T04:59:30.754Z,17.30
2018-12-13T05:01:59.097Z,17.70
2018-12-13T05:04:26.379Z,17.33
2018-12-13T05:06:54.637Z,17.10
2018-12-13T05:09:22.900Z,17.10
2018-12-13T05:11:52.169Z,17.53
2018-12-13T05:14:20.433Z,18.93
2018-12-13T05:16:48.675Z,18.17
2018-12-13T05:19:16.989Z,18.33
2018-12-13T05:21:48.849Z,18.60
2018-12-13T05:24:17.130Z,17.90
2018-12-13T05:26:44.414Z,19.17
2018-12-13T05:29:11.744Z,18.83
2018-12-13T05:31:40.060Z,18.10
2018-12-13T05:34:07.389Z,18.07
2018-12-13T05:36:34.675Z,18.50
2018-12-13T05:39:02.008Z,19.53
2018-12-13T05:41:30.273Z,18.60
2018-12-13T05:43:58.569Z,19.30
2018-12-13T05:46:25.847Z,17.73
2018-12-13T05:48:54.571Z,19.13
2018-12-13T05:51:22.104Z,19.53
2018-12-13T05:53:49.401Z,19.40
2018-12-13T05:56:16.699Z,18.50
2018-12-13T05:58:44.026Z,19.63
2018-12-13T06:01:12.218Z,19.87
2018-12-13T06:03:40.458Z,19.10
2018-12-13T06:06:07.780Z,19.27
2018-12-13T06:08:35.095Z,19.87
2018-12-13T06:11:02.445Z,17.80
2018-12-13T06:13:31.659Z,18.23
2018-12-13T06:15:59.025Z,18.13
2018-12-13T06:18:26.344Z,18.80
2018-12-13T06:20:54.547Z,17.53
2018-12-13T06:23:22.921Z,18.30
2018-12-13T06:25:51.000Z,19.70
2018-12-13T06:28:20.199Z,19.83
2018-12-13T06:30:47.565Z,19.07
2018-12-13T06:33:16.768Z,19.00
2018-12-13T06:35:45.052Z,18.40
2018-12-13T06:38:13.339Z,18.63
2018-12-13T06:40:40.664Z,19.00
2018-12-13T06:43:08.065Z,18.30
2018-12-13T06:45:36.288Z,18.27
2018-12-13T06:48:04.488Z,18.60
2018-12-13T06:50:32.805Z,20.70
2018-12-13T06:53:03.929Z,17.60
2018-12-13T06:55:31.219Z,19.03
2018-12-13T06:57:59.445Z,29.57
2018-12-13T07:00:26.744Z,33.50
2018-12-13T07:02:54.105Z,30.90
2018-12-13T07:05:24.471Z,25.80
2018-12-13T07:07:52.714Z,21.90
2018-12-13T07:10:19.988Z,20.30
2018-12-13T07:12:47.348Z,20.63
2018-12-13T07:15:15.541Z,19.60
2018-12-13T07:17:43.365Z,20.67
2018-12-13T07:20:11.198Z,20.33
2018-12-13T07:22:38.520Z,19.83
2018-12-13T07:25:05.820Z,19.40
2018-12-13T07:27:38.085Z,19.53
2018-12-13T07:30:07.275Z,19.13
2018-12-13T07:32:34.612Z,20.37
2018-12-13T07:35:03.265Z,21.10
2018-12-13T07:37:30.575Z,21.53
2018-12-13T07:39:58.779Z,20.30
2018-12-13T07:42:26.059Z,20.70
2018-12-13T07:44:54.369Z,19.77
2018-12-13T07:47:21.650Z,20.80
2018-12-13T07:49:49.928Z,21.07
2018-12-13T07:52:18.210Z,21.43
2018-12-13T07:54:45.552Z,20.33
2018-12-13T07:57:13.769Z,21.50
2018-12-13T07:59:41.092Z,20.43
2018-12-13T08:02:09.311Z,21.00
2018-12-13T08:04:36.670Z,21.37
2018-12-13T08:07:07.877Z,20.50
2018-12-13T08:09:35.249Z,21.23
2018-12-13T08:12:02.523Z,22.07
2018-12-13T08:14:29.852Z,21.03
2018-12-13T08:16:57.140Z,22.63
2018-12-13T08:19:25.359Z,19.13
2018-12-13T08:21:54.589Z,20.70
2018-12-13T08:24:21.886Z,19.90
2018-12-13T08:26:49.184Z,19.80
2018-12-13T08:29:18.471Z,20.30
2018-12-13T08:31:47.695Z,19.57
2018-12-13T08:34:15.031Z,19.10
2018-12-13T08:36:47.487Z,20.30
2018-12-13T08:39:14.787Z,18.77
2018-12-13T08:41:42.083Z,20.43
2018-12-13T08:44:09.375Z,20.37
2018-12-13T08:46:37.625Z,20.90
2018-12-13T08:49:05.912Z,20.25
2018-12-13T08:51:34.086Z,18.73
2018-12-13T08:54:02.360Z,19.57
2018-12-13T08:56:31.566Z,19.63
2018-12-13T08:58:58.854Z,20.80
2018-12-13T09:01:27.079Z,20.10
2018-12-13T09:03:55.663Z,20.47
2018-12-13T09:06:22.964Z,19.13
2018-12-13T09:08:56.140Z,19.13
2018-12-13T09:11:24.319Z,18.40
2018-12-13T09:13:53.595Z,19.47
2018-12-13T09:16:20.919Z,19.63
2018-12-13T09:18:51.991Z,19.57
2018-12-13T09:21:19.283Z,19.83
2018-12-13T09:23:46.579Z,17.63
2018-12-13T09:26:13.872Z,17.27
2018-12-13T09:28:41.176Z,18.17
2018-12-13T09:31:08.485Z,18.63
2018-12-13T09:33:36.659Z,18.17
2018-12-13T09:36:05.916Z,19.70
2018-12-13T09:38:33.291Z,17.73
2018-12-13T09:41:00.585Z,18.97
2018-12-13T09:43:28.767Z,17.47
2018-12-13T09:45:56.981Z,17.23
2018-12-13T09:48:25.267Z,17.90
2018-12-13T09:50:53.524Z,17.70
2018-12-13T09:53:20.815Z,17.57
2018-12-13T09:55:48.125Z,17.20
2018-12-13T09:58:15.415Z,18.03
2018-12-13T10:00:42.706Z,19.20
2018-12-13T10:03:10.008Z,18.53
2018-12-13T10:05:37.307Z,19.60
2018-12-13T10:08:04.596Z,18.40
2018-12-13T10:10:32.775Z,18.70
2018-12-13T10:13:01.055Z,17.13
2018-12-13T10:15:32.107Z,17.67
2018-12-13T10:17:59.546Z,17.40
2018-12-13T10:20:27.823Z,17.60
2018-12-13T10:22:55.130Z,15.43
2018-12-13T10:25:22.419Z,16.23
2018-12-13T10:27:49.719Z,16.77
2018-12-13T10:30:17.019Z,15.33
2018-12-13T10:32:44.315Z,16.10
2018-12-13T10:35:15.945Z,15.57
2018-12-13T10:37:45.155Z,15.00
2018-12-13T10:40:12.743Z,15.63
2018-12-13T10:42:40.984Z,15.43
2018-12-13T10:45:08.279Z,14.80
2018-12-13T10:47:35.571Z,14.00
2018-12-13T10:50:04.687Z,15.37
2018-12-13T10:52:33.880Z,15.37
2018-12-13T10:55:02.163Z,15.83
2018-12-13T10:57:29.459Z,15.37
2018-12-13T10:59:56.760Z,15.00
2018-12-13T11:02:29.747Z,15.67
2018-12-13T11:04:57.951Z,14.37
2018-12-13T11:07:26.119Z,14.40
2018-12-13T11:09:54.375Z,15.50
2018-12-13T11:12:22.659Z,14.23
2018-12-13T11:14:50.857Z,16.27
2018-12-13T11:17:19.107Z,14.97
2018-12-13T11:19:46.399Z,16.53
2018-12-13T11:22:15.676Z,15.43
2018-12-13T11:24:43.932Z,16.87
2018-12-13T11:30:12.943Z,15.90
2018-12-13T11:32:40.266Z,16.00
2018-12-13T11:35:07.632Z,16.40
2018-12-13T11:37:35.829Z,15.70
2018-12-13T11:40:04.907Z,16.60
2018-12-13T11:42:37.098Z,14.60
2018-12-13T11:45:08.755Z,15.10
2018-12-13T11:47:37.022Z,18.73
2018-12-13T11:50:05.354Z,18.57
2018-12-13T11:52:33.578Z,15.93
2018-12-13T11:55:02.771Z,15.83
2018-12-13T11:57:31.991Z,15.37
2018-12-13T11:59:59.277Z,16.00
2018-12-13T12:02:26.580Z,15.50
2018-12-13T12:04:53.867Z,15.27
2018-12-13T12:07:22.113Z,14.97
2018-12-13T12:09:49.403Z,16.60
2018-12-13T12:12:17.659Z,15.60
2018-12-13T12:14:44.955Z,15.33
2018-12-13T12:17:15.331Z,15.43
2018-12-13T12:19:42.627Z,16.83
2018-12-13T12:22:10.848Z,17.40
2018-12-13T12:24:40.051Z,16.67
2018-12-13T12:27:08.574Z,17.00
2018-12-13T12:29:37.008Z,18.20
2018-12-13T12:32:06.211Z,16.93
2018-12-13T12:34:33.508Z,17.80
2018-12-13T12:37:01.731Z,18.20
2018-12-13T12:39:29.041Z,20.07
2018-12-13T12:41:58.240Z,19.10
2018-12-13T12:44:28.463Z,19.27
2018-12-13T12:46:56.682Z,20.33
2018-12-13T12:49:25.377Z,19.13
2018-12-13T12:51:54.774Z,19.57
2018-12-13T12:54:22.063Z,20.10
2018-12-13T12:56:50.296Z,19.47
2018-12-13T12:59:18.579Z,18.10
2018-12-13T13:01:45.872Z,18.70
2018-12-13T13:04:14.107Z,20.20
2018-12-13T13:06:42.374Z,18.63
2018-12-13T13:09:11.619Z,19.10
2018-12-13T13:11:39.847Z,18.50
2018-12-13T13:14:07.135Z,17.90
2018-12-13T13:16:35.327Z,17.80
2018-12-13T13:19:03.561Z,18.50
2018-12-13T13:21:30.855Z,17.87
2018-12-13T13:24:03.083Z,18.73
2018-12-13T13:26:31.359Z,17.70
2018-12-13T13:28:58.656Z,18.30
2018-12-13T13:31:26.835Z,18.47
2018-12-13T13:33:55.087Z,16.97
2018-12-13T13:36:24.363Z,18.23
2018-12-13T13:38:51.652Z,17.40
2018-12-13T13:41:19.891Z,17.67
2018-12-13T13:43:48.166Z,17.40
2018-12-13T13:46:15.459Z,15.80
2018-12-13T13:48:42.757Z,16.30
2018-12-13T13:51:10.052Z,17.73
2018-12-13T13:53:37.371Z,17.40
2018-12-13T13:56:05.562Z,16.20
2018-12-13T13:58:33.823Z,16.43
2018-12-13T14:01:01.119Z,16.20
2018-12-13T14:03:29.360Z,16.73
2018-12-13T14:05:57.639Z,16.10
2018-12-13T14:08:24.928Z,14.90
2018-12-13T14:10:53.168Z,15.67
2018-12-13T14:13:20.459Z,14.87
2018-12-13T14:15:47.755Z,16.73
2018-12-13T14:18:15.051Z,16.90
2018-12-13T14:20:43.303Z,18.43
2018-12-13T14:23:12.582Z,17.27
2018-12-13T14:25:40.777Z,17.83
2018-12-13T14:28:09.059Z,17.43
2018-12-13T14:30:37.323Z,20.10
2018-12-13T14:33:04.624Z,20.00
2018-12-13T14:35:32.795Z,21.20
2018-12-13T14:38:01.039Z,20.77
2018-12-13T14:40:29.214Z,20.50
2018-12-13T14:42:57.495Z,21.40
2018-12-13T14:45:25.775Z,20.20
2018-12-13T14:47:54.031Z,19.30
2018-12-13T14:50:23.247Z,19.40
2018-12-13T14:52:51.507Z,18.90
2018-12-13T14:55:19.784Z,19.30
2018-12-13T14:57:47.111Z,18.23
2018-12-13T15:00:14.408Z,19.33
2018-12-13T15:02:43.583Z,19.83
2018-12-13T15:05:11.092Z,18.20
2018-12-13T15:07:38.378Z,16.83
2018-12-13T15:10:10.567Z,16.40
2018-12-13T15:12:37.859Z,16.63
2018-12-13T15:15:09.883Z,17.83
2018-12-13T15:17:38.159Z,19.07
2018-12-13T15:20:05.551Z,18.13
2018-12-13T15:22:33.791Z,20.10
2018-12-13T15:25:02.070Z,19.00
2018-12-13T15:27:29.363Z,19.17
2018-12-13T15:29:56.664Z,17.80
2018-12-13T15:32:24.847Z,18.00
2018-12-13T15:34:53.227Z,17.50
2018-12-13T15:37:21.515Z,16.50
2018-12-13T15:39:48.819Z,16.67
2018-12-13T15:42:17.034Z,16.43
2018-12-13T15:44:46.111Z,16.57
2018-12-13T15:47:14.299Z,16.63
2018-12-13T15:49:43.811Z,15.80
2018-12-13T15:52:12.078Z,17.90
2018-12-13T15:54:40.363Z,15.90
2018-12-13T15:57:08.542Z,15.57
2018-12-13T15:59:36.767Z,15.77
2018-12-13T16:02:06.007Z,19.23
2018-12-13T16:04:34.491Z,16.03
2018-12-13T16:07:01.783Z,16.03
2018-12-13T16:09:30.018Z,16.57
2018-12-13T16:11:57.315Z,15.80
2018-12-13T16:14:24.611Z,15.97
2018-12-13T16:16:52.803Z,15.10
2018-12-13T16:19:22.002Z,15.30
2018-12-13T16:21:50.270Z,14.70
2018-12-13T16:24:17.567Z,14.77
2018-12-13T16:26:44.866Z,15.40
2018-12-13T16:29:12.184Z,15.47
2018-12-13T16:31:40.403Z,15.20
2018-12-13T16:34:09.602Z,16.40
2018-12-13T16:39:09.532Z,15.90
2018-12-13T16:41:37.791Z,15.27
2018-12-13T16:44:06.026Z,15.13
2018-12-13T16:46:34.268Z,14.30
2018-12-13T16:51:30.119Z,14.90
2018-12-13T16:53:58.379Z,14.30
2018-12-13T16:56:26.562Z,14.35
2018-12-13T16:58:59.032Z,14.00
2018-12-13T17:01:26.327Z,15.00
2018-12-13T17:03:53.627Z,14.80
2018-12-13T17:06:21.802Z,14.17
2018-12-13T17:08:50.111Z,13.63
2018-12-13T17:11:17.405Z,13.13
2018-12-13T17:13:45.577Z,14.07
2018-12-13T17:16:12.871Z,12.30
2018-12-13T17:18:40.163Z,12.20
2018-12-13T17:21:09.422Z,12.00
2018-12-13T17:23:37.695Z,12.67
2018-12-13T17:26:04.999Z,11.20
2018-12-13T17:28:32.283Z,12.27
2018-12-13T17:30:59.579Z,12.30
2018-12-13T17:33:27.834Z,12.10
2018-12-13T17:35:56.103Z,12.20
2018-12-13T17:40:51.022Z,11.35
2018-12-13T17:43:19.294Z,10.25
2018-12-13T17:48:15.138Z,9.83
2018-12-13T17:55:37.945Z,8.80
2018-12-13T17:58:06.183Z,9.90
2018-12-13T18:00:34.363Z,9.80
2018-12-13T18:03:02.635Z,10.47
2018-12-13T18:05:30.923Z,10.10
2018-12-13T18:08:03.787Z,9.90
2018-12-13T18:10:32.002Z,11.17
2018-12-13T18:13:00.177Z,11.40
2018-12-13T18:15:29.447Z,11.70
2018-12-13T18:18:00.065Z,12.10
2018-12-13T18:20:27.351Z,11.20
2018-12-13T18:22:55.611Z,11.37
2018-12-13T18:25:22.907Z,11.30
2018-12-13T18:27:50.215Z,11.10
2018-12-13T18:30:17.511Z,11.00
2018-12-13T18:32:44.802Z,11.60
2018-12-13T18:35:12.094Z,11.23
2018-12-13T18:40:06.208Z,11.10
2018-12-13T18:45:01.147Z,11.90
2018-12-13T18:47:29.676Z,12.50
2018-12-13T18:49:57.943Z,11.75
2018-12-13T18:54:54.907Z,13.50
2018-12-13T18:57:22.204Z,13.40
2018-12-13T18:59:49.530Z,11.70
2018-12-13T19:07:11.270Z,12.50
2018-12-13T19:09:40.467Z,10.80
2018-12-13T19:12:08.754Z,11.20
2018-12-13T19:17:03.962Z,11.50
2018-12-13T19:19:31.252Z,11.30
2018-12-13T19:24:28.079Z,12.10
2018-12-13T19:29:23.002Z,13.00
2018-12-13T19:34:17.007Z,12.80
2018-12-13T19:36:46.290Z,12.10
2018-12-13T19:53:54.968Z,13.83
2018-12-13T19:58:51.859Z,14.50
2018-12-13T20:01:20.146Z,14.00
2018-12-13T20:03:47.439Z,12.90
2018-12-13T20:06:15.675Z,14.80
2018-12-13T20:08:43.953Z,15.60
2018-12-13T20:11:14.891Z,14.80
2018-12-13T20:13:42.183Z,14.90
2018-12-13T20:18:36.201Z,14.93
2018-12-13T20:21:03.513Z,14.27
2018-12-13T20:23:31.670Z,14.00
2018-12-13T20:25:58.967Z,13.80
2018-12-13T20:28:27.189Z,14.20
2018-12-13T20:30:54.518Z,15.70
2018-12-13T20:33:22.712Z,15.37
2018-12-13T20:35:50.011Z,15.57
2018-12-13T20:38:17.306Z,17.03
2018-12-13T20:40:45.527Z,16.50
2018-12-13T20:43:12.844Z,16.60
2018-12-13T20:45:41.019Z,17.20
2018-12-13T20:48:09.199Z,17.20
2018-12-13T20:50:37.489Z,17.13
2018-12-13T20:53:04.783Z,18.03
2018-12-13T20:55:32.082Z,17.33
2018-12-13T20:58:00.395Z,18.50
2018-12-13T21:00:29.656Z,17.70
2018-12-13T21:02:56.950Z,17.50
2018-12-13T21:05:25.196Z,16.70
2018-12-13T21:07:54.402Z,17.03
2018-12-13T21:10:22.658Z,17.60
2018-12-13T21:12:49.959Z,18.80
2018-12-13T21:15:17.259Z,17.67
2018-12-13T21:17:44.568Z,20.87
2018-12-13T21:20:12.802Z,23.20
2018-12-13T21:22:42.003Z,21.93
2018-12-13T21:25:09.294Z,22.70
2018-12-13T21:27:37.524Z,23.50
2018-12-13T21:30:05.319Z,22.57
2018-12-13T21:32:32.623Z,20.70
2018-12-13T21:34:59.928Z,21.57
2018-12-13T21:37:28.166Z,19.13
2018-12-13T21:39:55.467Z,19.90
2018-12-13T21:42:23.703Z,19.10
2018-12-13T21:44:51.000Z,17.37
2018-12-13T21:47:18.298Z,18.80
2018-12-13T21:49:45.591Z,17.80
2018-12-13T21:52:13.771Z,17.50
2018-12-13T21:54:42.055Z,18.43
2018-12-13T21:57:10.615Z,19.10
2018-12-13T21:59:39.803Z,18.30
2018-12-13T22:02:07.091Z,17.50
2018-12-13T22:04:35.323Z,17.43
2018-12-13T22:07:02.687Z,17.40
2018-12-13T22:09:30.006Z,18.03
2018-12-13T22:14:25.019Z,17.80
2018-12-13T22:21:46.685Z,19.45
2018-12-13T22:24:14.005Z,17.97
2018-12-13T22:26:41.334Z,16.75
2018-12-13T22:29:09.658Z,15.85
2018-12-13T22:31:36.973Z,15.90
2018-12-13T22:34:05.195Z,15.90
2018-12-13T22:39:01.160Z,15.35
2018-12-13T22:41:28.472Z,15.60
2018-12-13T22:43:55.755Z,15.43
2018-12-13T22:46:24.049Z,15.60
2018-12-13T22:48:52.260Z,16.40
2018-12-13T22:51:19.550Z,15.33
2018-12-13T22:53:48.800Z,15.30
2018-12-13T22:56:16.112Z,15.20
2018-12-13T22:58:43.411Z,15.07
2018-12-13T23:01:11.683Z,15.23
2018-12-13T23:03:39.949Z,13.30
2018-12-13T23:06:07.313Z,14.20
2018-12-13T23:08:34.657Z,14.80
2018-12-13T23:11:02.236Z,13.97
2018-12-13T23:13:30.505Z,14.97
2018-12-13T23:15:57.925Z,13.93
2018-12-13T23:18:25.275Z,14.60
2018-12-13T23:20:53.533Z,14.60
2018-12-13T23:23:21.802Z,14.47
2018-12-13T23:25:51.149Z,14.30
2018-12-13T23:28:18.462Z,13.20
2018-12-13T23:30:45.808Z,13.70
2018-12-13T23:33:14.061Z,12.23
2018-12-13T23:38:09.961Z,13.87
2018-12-13T23:40:38.259Z,12.60
2018-12-13T23:43:07.539Z,13.00
2018-12-13T23:45:36.764Z,13.70
2018-12-13T23:48:05.014Z,12.30
2018-12-13T23:50:32.340Z,13.00
2018-12-13T23:52:59.631Z,12.60
